GRVCE EGGP-EGAC
Flight info
| Callsign | GRVCE |
|---|---|
| Flight time | 0h 30m |
| Altitude | 24000 |
| Route | WAL M146 ERDUV Z198 MASOP M148 MAGEE |
| Aircraft | C700/M-SBDGHM1RWXY/LB2 |
Departure
| Time | 2026-04-22 19:26 |
|---|---|
| Airport | Liverpool John Lennon Airport (EGGP) |
Arrival
| Time | 2026-04-22 19:56 |
|---|---|
| Airport | George Best Belfast City Airport (EGAC) |
| Time | Latitude | Longitude | Altitude | Speed | Heading |
|---|---|---|---|---|---|
| 2026-04-22 19:13 | 53.33664 | -2.83662 | 83 ft | 0 kts | 264° |
| 2026-04-22 19:17 | 53.33659 | -2.83728 | 83 ft | 13 kts | 262° |
| 2026-04-22 19:17 | 53.33625 | -2.83801 | 83 ft | 7 kts | 166° |
| 2026-04-22 19:18 | 53.33583 | -2.83850 | 83 ft | 7 kts | 261° |
| 2026-04-22 19:18 | 53.33574 | -2.84022 | 83 ft | 24 kts | 265° |
| 2026-04-22 19:18 | 53.33559 | -2.84335 | 84 ft | 29 kts | 266° |
| 2026-04-22 19:18 | 53.33543 | -2.84687 | 83 ft | 32 kts | 265° |
| 2026-04-22 19:19 | 53.33525 | -2.85075 | 86 ft | 35 kts | 265° |
| 2026-04-22 19:19 | 53.33506 | -2.85491 | 83 ft | 35 kts | 265° |
| 2026-04-22 19:19 | 53.33496 | -2.85705 | 86 ft | 12 kts | 265° |
| 2026-04-22 19:19 | 53.33488 | -2.85864 | 83 ft | 11 kts | 265° |
| 2026-04-22 19:20 | 53.33482 | -2.86011 | 86 ft | 10 kts | 265° |
| 2026-04-22 19:20 | 53.33477 | -2.86109 | 83 ft | 10 kts | 265° |
| 2026-04-22 19:20 | 53.33472 | -2.86202 | 83 ft | 13 kts | 265° |
| 2026-04-22 19:20 | 53.33464 | -2.86374 | 83 ft | 9 kts | 266° |
| 2026-04-22 19:21 | 53.33459 | -2.86480 | 83 ft | 11 kts | 265° |
| 2026-04-22 19:21 | 53.33453 | -2.86630 | 87 ft | 15 kts | 265° |
| 2026-04-22 19:21 | 53.33408 | -2.86723 | 85 ft | 12 kts | 204° |
| 2026-04-22 19:21 | 53.33395 | -2.86730 | 87 ft | 0 kts | 194° |
| 2026-04-22 19:23 | 53.33360 | -2.86731 | 83 ft | 9 kts | 171° |
| 2026-04-22 19:23 | 53.33299 | -2.86663 | 83 ft | 12 kts | 132° |
| 2026-04-22 19:23 | 53.33291 | -2.86547 | 82 ft | 0 kts | 85° |
| 2026-04-22 19:24 | 53.33291 | -2.86542 | 82 ft | 1 kts | 86° |
| 2026-04-22 19:24 | 53.33291 | -2.86541 | 82 ft | 0 kts | 85° |
| 2026-04-22 19:25 | 53.33294 | -2.86470 | 81 ft | 29 kts | 85° |
| 2026-04-22 19:25 | 53.33335 | -2.85582 | 87 ft | 122 kts | 86° |
| 2026-04-22 19:26 | 53.33407 | -2.83939 | 742 ft | 156 kts | 86° |
| 2026-04-22 19:26 | 53.33514 | -2.81916 | 1693 ft | 177 kts | 86° |
| 2026-04-22 19:26 | 53.33655 | -2.79857 | 2600 ft | 179 kts | 85° |
| 2026-04-22 19:26 | 53.34351 | -2.78007 | 3672 ft | 214 kts | 41° |
| 2026-04-22 19:27 | 53.34791 | -2.77559 | 4099 ft | 225 kts | 35° |
| 2026-04-22 19:27 | 53.35430 | -2.77061 | 4639 ft | 232 kts | 22° |
| 2026-04-22 19:27 | 53.37133 | -2.76785 | 5955 ft | 272 kts | 356° |
| 2026-04-22 19:27 | 53.38879 | -2.78072 | 6514 ft | 273 kts | 316° |
| 2026-04-22 19:28 | 53.39869 | -2.80846 | 7545 ft | 286 kts | 290° |
| 2026-04-22 19:28 | 53.40508 | -2.83817 | 8578 ft | 247 kts | 280° |
| 2026-04-22 19:28 | 53.40328 | -2.86533 | 9578 ft | 226 kts | 240° |
| 2026-04-22 19:28 | 53.39547 | -2.88708 | 10585 ft | 224 kts | 234° |
| 2026-04-22 19:29 | 53.38864 | -2.91067 | 11551 ft | 228 kts | 245° |
| 2026-04-22 19:29 | 53.38420 | -2.93784 | 12563 ft | 256 kts | 256° |
| 2026-04-22 19:29 | 53.38343 | -2.96927 | 13622 ft | 285 kts | 270° |
| 2026-04-22 19:29 | 53.38583 | -3.00367 | 14666 ft | 310 kts | 275° |
| 2026-04-22 19:30 | 53.38768 | -3.02796 | 15327 ft | 325 kts | 273° |
| 2026-04-22 19:30 | 53.39028 | -3.08069 | 16704 ft | 354 kts | 275° |
| 2026-04-22 19:30 | 53.39713 | -3.12166 | 17768 ft | 377 kts | 289° |
| 2026-04-22 19:30 | 53.40986 | -3.16122 | 18837 ft | 396 kts | 303° |
| 2026-04-22 19:31 | 53.42822 | -3.19636 | 19808 ft | 400 kts | 313° |
| 2026-04-22 19:31 | 53.44787 | -3.22967 | 20799 ft | 405 kts | 313° |
| 2026-04-22 19:31 | 53.46780 | -3.26370 | 21831 ft | 411 kts | 313° |
| 2026-04-22 19:31 | 53.48795 | -3.29808 | 22894 ft | 415 kts | 313° |
| 2026-04-22 19:32 | 53.50827 | -3.33276 | 23986 ft | 419 kts | 313° |
| 2026-04-22 19:32 | 53.52907 | -3.36844 | 24383 ft | 438 kts | 313° |
| 2026-04-22 19:32 | 53.55066 | -3.40563 | 24396 ft | 447 kts | 313° |
| 2026-04-22 19:32 | 53.57250 | -3.44329 | 24392 ft | 453 kts | 312° |
| 2026-04-22 19:33 | 53.59194 | -3.48522 | 24392 ft | 455 kts | 303° |
| 2026-04-22 19:33 | 53.60976 | -3.52843 | 24390 ft | 456 kts | 304° |
| 2026-04-22 19:33 | 53.62835 | -3.57175 | 24392 ft | 457 kts | 304° |
| 2026-04-22 19:33 | 53.64691 | -3.61525 | 24385 ft | 457 kts | 304° |
| 2026-04-22 19:34 | 53.66509 | -3.65907 | 24384 ft | 457 kts | 303° |
| 2026-04-22 19:34 | 53.68326 | -3.70304 | 24388 ft | 456 kts | 303° |
| 2026-04-22 19:34 | 53.70158 | -3.74676 | 24384 ft | 457 kts | 303° |
| 2026-04-22 19:34 | 53.71999 | -3.79052 | 24382 ft | 457 kts | 303° |
| 2026-04-22 19:35 | 53.73824 | -3.83448 | 24386 ft | 457 kts | 303° |
| 2026-04-22 19:35 | 53.75643 | -3.87850 | 24384 ft | 457 kts | 303° |
| 2026-04-22 19:35 | 53.77469 | -3.92253 | 24383 ft | 457 kts | 303° |
| 2026-04-22 19:35 | 53.79296 | -3.96655 | 24386 ft | 458 kts | 303° |
| 2026-04-22 19:36 | 53.81122 | -4.01065 | 24384 ft | 457 kts | 303° |
| 2026-04-22 19:36 | 53.82937 | -4.05482 | 24387 ft | 457 kts | 303° |
| 2026-04-22 19:36 | 53.84768 | -4.09894 | 24384 ft | 458 kts | 305° |
| 2026-04-22 19:36 | 53.86946 | -4.13855 | 24369 ft | 462 kts | 315° |
| 2026-04-22 19:37 | 53.89471 | -4.17234 | 24367 ft | 464 kts | 324° |
| 2026-04-22 19:37 | 53.92291 | -4.19914 | 24370 ft | 467 kts | 333° |
| 2026-04-22 19:37 | 53.95306 | -4.21954 | 24372 ft | 468 kts | 338° |
| 2026-04-22 19:37 | 53.98339 | -4.23940 | 24371 ft | 467 kts | 337° |
| 2026-04-22 19:38 | 54.01364 | -4.25972 | 24376 ft | 468 kts | 336° |
| 2026-04-22 19:38 | 54.04402 | -4.27993 | 24378 ft | 469 kts | 337° |
| 2026-04-22 19:38 | 54.07433 | -4.29986 | 24379 ft | 466 kts | 337° |
| 2026-04-22 19:38 | 54.10461 | -4.32008 | 24382 ft | 466 kts | 336° |
| 2026-04-22 19:39 | 54.13328 | -4.34554 | 24371 ft | 465 kts | 326° |
| 2026-04-22 19:39 | 54.15914 | -4.37854 | 24365 ft | 464 kts | 316° |
| 2026-04-22 19:39 | 54.18145 | -4.41789 | 24368 ft | 461 kts | 307° |
| 2026-04-22 19:39 | 54.20025 | -4.46206 | 24371 ft | 459 kts | 302° |
| 2026-04-22 19:40 | 54.21855 | -4.50682 | 24376 ft | 460 kts | 303° |
| 2026-04-22 19:40 | 54.23701 | -4.55141 | 24374 ft | 460 kts | 303° |
| 2026-04-22 19:40 | 54.25532 | -4.59620 | 24379 ft | 459 kts | 302° |
| 2026-04-22 19:40 | 54.27351 | -4.64120 | 24382 ft | 460 kts | 302° |
| 2026-04-22 19:41 | 54.29174 | -4.68608 | 24382 ft | 460 kts | 302° |
| 2026-04-22 19:41 | 54.30997 | -4.73077 | 24307 ft | 449 kts | 303° |
| 2026-04-22 19:41 | 54.32748 | -4.77369 | 22921 ft | 437 kts | 302° |
| 2026-04-22 19:41 | 54.34469 | -4.81644 | 21434 ft | 433 kts | 302° |
| 2026-04-22 19:42 | 54.36163 | -4.85856 | 20114 ft | 426 kts | 303° |
| 2026-04-22 19:42 | 54.37836 | -4.89993 | 18858 ft | 419 kts | 303° |
| 2026-04-22 19:42 | 54.39486 | -4.94076 | 17506 ft | 413 kts | 303° |
| 2026-04-22 19:42 | 54.41099 | -4.98094 | 16208 ft | 406 kts | 302° |
| 2026-04-22 19:43 | 54.44194 | -5.05804 | 15122 ft | 375 kts | 302° |
| 2026-04-22 19:43 | 54.45336 | -5.09753 | 13942 ft | 369 kts | 283° |
| 2026-04-22 19:43 | 54.45758 | -5.14040 | 12874 ft | 360 kts | 272° |
| 2026-04-22 19:44 | 54.45951 | -5.18301 | 11814 ft | 356 kts | 270° |
| 2026-04-22 19:44 | 54.46074 | -5.22538 | 10787 ft | 353 kts | 269° |
| 2026-04-22 19:44 | 54.46166 | -5.26680 | 10394 ft | 340 kts | 269° |
| 2026-04-22 19:44 | 54.46247 | -5.30787 | 10391 ft | 350 kts | 269° |
| 2026-04-22 19:45 | 54.46327 | -5.34959 | 10394 ft | 351 kts | 269° |
| 2026-04-22 19:45 | 54.46406 | -5.39166 | 10398 ft | 352 kts | 269° |
| 2026-04-22 19:45 | 54.46487 | -5.43318 | 10402 ft | 352 kts | 268° |
| 2026-04-22 19:45 | 54.46545 | -5.47522 | 10279 ft | 332 kts | 268° |
| 2026-04-22 19:46 | 54.46594 | -5.51428 | 9707 ft | 319 kts | 268° |
| 2026-04-22 19:46 | 54.46643 | -5.55075 | 9652 ft | 292 kts | 268° |
| 2026-04-22 19:46 | 54.46699 | -5.58429 | 9633 ft | 269 kts | 268° |
| 2026-04-22 19:46 | 54.46762 | -5.61383 | 8874 ft | 244 kts | 268° |
| 2026-04-22 19:47 | 54.46727 | -5.64404 | 8295 ft | 251 kts | 259° |
| 2026-04-22 19:47 | 54.46440 | -5.67293 | 8075 ft | 243 kts | 254° |
| 2026-04-22 19:47 | 54.46210 | -5.69219 | 7837 ft | 244 kts | 253° |
| 2026-04-22 19:47 | 54.45753 | -5.72994 | 7439 ft | 243 kts | 253° |
| 2026-04-22 19:48 | 54.45402 | -5.75834 | 7149 ft | 242 kts | 253° |
| 2026-04-22 19:48 | 54.44981 | -5.78611 | 6836 ft | 239 kts | 246° |
| 2026-04-22 19:48 | 54.44385 | -5.81269 | 6520 ft | 237 kts | 244° |
| 2026-04-22 19:48 | 54.43778 | -5.83893 | 6241 ft | 235 kts | 243° |
| 2026-04-22 19:49 | 54.43175 | -5.86492 | 5966 ft | 233 kts | 243° |
| 2026-04-22 19:49 | 54.42571 | -5.89065 | 5762 ft | 228 kts | 243° |
| 2026-04-22 19:49 | 54.41972 | -5.91535 | 5755 ft | 215 kts | 242° |
| 2026-04-22 19:49 | 54.41454 | -5.93811 | 5726 ft | 198 kts | 249° |
| 2026-04-22 19:50 | 54.41533 | -5.96048 | 5636 ft | 183 kts | 292° |
| 2026-04-22 19:50 | 54.42197 | -5.97945 | 4837 ft | 195 kts | 301° |
| 2026-04-22 19:50 | 54.42964 | -6.00072 | 3694 ft | 217 kts | 300° |
| 2026-04-22 19:50 | 54.43763 | -6.02322 | 2612 ft | 229 kts | 303° |
| 2026-04-22 19:51 | 54.44872 | -6.03951 | 2373 ft | 189 kts | 346° |
| 2026-04-22 19:51 | 54.46058 | -6.04584 | 2372 ft | 172 kts | 2° |
| 2026-04-22 19:51 | 54.47166 | -6.04257 | 2406 ft | 157 kts | 31° |
| 2026-04-22 19:51 | 54.48120 | -6.03475 | 2394 ft | 147 kts | 45° |
| 2026-04-22 19:52 | 54.48966 | -6.02516 | 2397 ft | 146 kts | 44° |
| 2026-04-22 19:52 | 54.49807 | -6.01564 | 2392 ft | 151 kts | 47° |
| 2026-04-22 19:52 | 54.50658 | -6.00545 | 2393 ft | 147 kts | 46° |
| 2026-04-22 19:52 | 54.51503 | -5.99556 | 2388 ft | 147 kts | 47° |
| 2026-04-22 19:53 | 54.52349 | -5.98523 | 2223 ft | 148 kts | 46° |
| 2026-04-22 19:53 | 54.53174 | -5.97577 | 2026 ft | 139 kts | 46° |
| 2026-04-22 19:53 | 54.53701 | -5.96934 | 1900 ft | 133 kts | 48° |
| 2026-04-22 19:53 | 54.54716 | -5.95706 | 1665 ft | 135 kts | 44° |
| 2026-04-22 19:54 | 54.55488 | -5.94818 | 1466 ft | 128 kts | 46° |
| 2026-04-22 19:54 | 54.56173 | -5.93982 | 1287 ft | 115 kts | 45° |
| 2026-04-22 19:54 | 54.56800 | -5.93236 | 1118 ft | 107 kts | 45° |
| 2026-04-22 19:54 | 54.57417 | -5.92488 | 966 ft | 108 kts | 41° |
| 2026-04-22 19:55 | 54.58020 | -5.91789 | 826 ft | 103 kts | 42° |
| 2026-04-22 19:55 | 54.58612 | -5.91056 | 676 ft | 105 kts | 41° |
| 2026-04-22 19:55 | 54.59212 | -5.90378 | 536 ft | 101 kts | 39° |
| 2026-04-22 19:55 | 54.59795 | -5.89679 | 419 ft | 101 kts | 42° |
| 2026-04-22 19:56 | 54.60374 | -5.88948 | 293 ft | 104 kts | 40° |
| 2026-04-22 19:56 | 54.60971 | -5.88242 | 117 ft | 104 kts | 39° |
| 2026-04-22 19:56 | 54.61542 | -5.87579 | 17 ft | 86 kts | 41° |
| 2026-04-22 19:56 | 54.61823 | -5.87225 | 18 ft | 18 kts | 53° |
| 2026-04-22 19:57 | 54.61780 | -5.87036 | 20 ft | 18 kts | 126° |
| 2026-04-22 19:57 | 54.61698 | -5.87024 | 18 ft | 15 kts | 216° |
| 2026-04-22 19:57 | 54.61603 | -5.87139 | 19 ft | 19 kts | 213° |
| 2026-04-22 19:57 | 54.61483 | -5.87280 | 18 ft | 23 kts | 214° |
| 2026-04-22 19:58 | 54.61372 | -5.87446 | 17 ft | 19 kts | 229° |
| 2026-04-22 19:58 | 54.61254 | -5.87592 | 17 ft | 23 kts | 216° |
| 2026-04-22 19:58 | 54.61121 | -5.87756 | 17 ft | 15 kts | 204° |
| 2026-04-22 19:58 | 54.61096 | -5.87709 | 17 ft | 6 kts | 100° |
| 2026-04-22 19:59 | 54.61104 | -5.87681 | 17 ft | 0 kts | 34° |